Time;durP1;ratioP1;P1;durP2;ratioP2;P2;SDS_P1;SDS_P2;PMS_P1;PMS_P2;Temp;Humidity;BMP_temperature;BMP_pressure;BME280_temperature;BME280_humidity;BME280_pressure;Samples;Min_cycle;Max_cycle;Signal;HPM_P1;HPM_P2
2022/11/18 00:04:45;;;;;;;125.55;117.40;;;;;;;;;;10193938;28;20503;-66
2022/11/18 00:09:41;;;;;;;127.05;118.53;;;;;;;;;;10194311;28;20470;-66
2022/11/18 00:14:38;;;;;;;123.07;115.18;;;;;;;;;;10193327;28;20064;-66
2022/11/18 00:19:35;;;;;;;124.13;116.03;;;;;;;;;;10193853;28;20057;-66
2022/11/18 00:24:31;;;;;;;127.22;118.53;;;;;;;;;;10193476;28;20093;-66
2022/11/18 00:29:29;;;;;;;122.35;114.20;;;;;;;;;;10193325;28;20133;-66
2022/11/18 00:34:26;;;;;;;122.45;114.47;;;;;;;;;;10189400;28;20045;-66
2022/11/18 00:39:22;;;;;;;123.78;115.65;;;;;;;;;;10190131;28;20042;-66
2022/11/18 00:44:19;;;;;;;124.30;115.97;;;;;;;;;;10193323;28;20089;-66
2022/11/18 00:49:15;;;;;;;129.25;120.70;;;;;;;;;;10191941;28;20144;-66
2022/11/18 00:54:11;;;;;;;124.60;115.97;;;;;;;;;;10193470;28;20038;-66
2022/11/18 00:59:08;;;;;;;121.95;113.88;;;;;;;;;;10191207;28;20037;-66
2022/11/18 01:04:04;;;;;;;125.32;117.05;;;;;;;;;;10192598;28;20078;-66
2022/11/18 01:09:00;;;;;;;125.60;117.35;;;;;;;;;;10190208;28;20069;-66
2022/11/18 01:13:57;;;;;;;121.30;113.43;;;;;;;;;;10191344;28;20050;-65
2022/11/18 01:18:54;;;;;;;127.57;118.85;;;;;;;;;;10191563;28;20058;-66
2022/11/18 01:23:51;;;;;;;121.20;113.30;;;;;;;;;;10180899;28;20436;-66
2022/11/18 01:28:47;;;;;;;125.88;117.82;;;;;;;;;;10190489;28;20057;-66
2022/11/18 01:33:44;;;;;;;125.35;117.38;;;;;;;;;;10190825;28;20115;-66
2022/11/18 01:38:40;;;;;;;122.45;114.50;;;;;;;;;;10190296;28;20045;-66
2022/11/18 01:43:53;;;;;;;128.43;120.13;;;;;;;;;;10189695;28;20050;-66
2022/11/18 01:48:52;;;;;;;129.35;121.00;;;;;;;;;;10190444;28;20496;-66
2022/11/18 01:53:50;;;;;;;122.10;114.20;;;;;;;;;;10186801;28;20046;-66
2022/11/18 01:58:57;;;;;;;120.95;113.07;;;;;;;;;;10186386;28;20699;-66
2022/11/18 02:03:54;;;;;;;127.85;119.38;;;;;;;;;;10187153;28;20073;-66
2022/11/18 02:08:51;;;;;;;125.50;117.13;;;;;;;;;;10188581;28;20391;-66
2022/11/18 02:13:47;;;;;;;124.13;115.63;;;;;;;;;;10196329;28;20046;-66
2022/11/18 02:18:53;;;;;;;126.10;117.90;;;;;;;;;;10193488;28;20108;-66
2022/11/18 02:24:02;;;;;;;126.55;118.55;;;;;;;;;;10191358;28;20050;-66
2022/11/18 02:29:08;;;;;;;130.23;121.78;;;;;;;;;;10198135;28;20057;-66
2022/11/18 02:34:05;;;;;;;130.40;122.22;;;;;;;;;;10196383;28;20049;-66
2022/11/18 02:39:04;;;;;;;129.65;121.60;;;;;;;;;;10197699;28;20511;-66
2022/11/18 02:44:10;;;;;;;131.25;122.95;;;;;;;;;;10193029;28;20046;-66
2022/11/18 02:49:12;;;;;;;127.22;119.03;;;;;;;;;;10196767;28;20066;-66
2022/11/18 02:54:10;;;;;;;126.63;118.28;;;;;;;;;;10196465;28;20419;-66
2022/11/18 02:59:07;;;;;;;127.60;119.57;;;;;;;;;;10194600;28;20046;-66
2022/11/18 03:04:03;;;;;;;124.70;116.90;;;;;;;;;;10197062;28;20045;-66
2022/11/18 03:08:59;;;;;;;128.18;120.00;;;;;;;;;;10196054;28;20125;-66
2022/11/18 03:14:06;;;;;;;124.55;116.70;;;;;;;;;;10196179;28;20045;-66
2022/11/18 03:19:12;;;;;;;125.75;117.30;;;;;;;;;;10196302;28;20053;-66
2022/11/18 03:24:13;;;;;;;125.80;118.10;;;;;;;;;;10192677;28;20046;-66
2022/11/18 03:29:16;;;;;;;124.03;116.07;;;;;;;;;;10195234;28;20066;-66
2022/11/18 03:34:16;;;;;;;127.50;119.82;;;;;;;;;;10193884;28;20042;-66
2022/11/18 03:39:14;;;;;;;124.50;117.07;;;;;;;;;;10195918;28;20046;-66
2022/11/18 03:44:15;;;;;;;126.90;119.15;;;;;;;;;;10185617;28;20038;-66
2022/11/18 03:49:21;;;;;;;126.10;118.20;;;;;;;;;;10194660;28;20045;-66
2022/11/18 03:54:37;;;;;;;127.03;119.55;;;;;;;;;;10195086;28;20530;-66
2022/11/18 03:59:36;;;;;;;127.55;119.78;;;;;;;;;;10191502;28;20555;-66
2022/11/18 04:04:32;;;;;;;127.40;119.53;;;;;;;;;;10194359;28;20056;-66
2022/11/18 04:09:32;;;;;;;126.78;119.10;;;;;;;;;;10191199;28;20092;-66
2022/11/18 04:14:48;;;;;;;128.35;120.20;;;;;;;;;;10192474;28;20054;-66
2022/11/18 04:19:45;;;;;;;128.10;120.15;;;;;;;;;;10193232;28;20050;-66
2022/11/18 04:24:41;;;;;;;125.25;117.47;;;;;;;;;;10193686;28;20042;-66
2022/11/18 04:29:38;;;;;;;131.93;123.75;;;;;;;;;;10191468;28;20097;-66
2022/11/18 04:34:34;;;;;;;128.50;120.38;;;;;;;;;;10192527;28;20123;-66
2022/11/18 04:39:30;;;;;;;129.05;120.97;;;;;;;;;;10191829;28;20050;-66
2022/11/18 04:44:28;;;;;;;128.48;119.72;;;;;;;;;;10193661;28;20050;-66
2022/11/18 04:49:24;;;;;;;119.18;111.32;;;;;;;;;;10192988;28;20082;-66
2022/11/18 04:54:21;;;;;;;128.60;120.18;;;;;;;;;;10192970;28;20037;-66
2022/11/18 04:59:19;;;;;;;128.48;120.25;;;;;;;;;;10192259;28;20077;-66
2022/11/18 05:04:17;;;;;;;128.32;119.82;;;;;;;;;;10192134;28;20411;-66
2022/11/18 05:09:14;;;;;;;121.82;114.07;;;;;;;;;;10191233;28;20088;-66
2022/11/18 05:14:12;;;;;;;121.97;114.07;;;;;;;;;;10189977;28;20041;-66
2022/11/18 05:19:08;;;;;;;121.05;113.07;;;;;;;;;;10186671;28;20038;-66
2022/11/18 05:24:04;;;;;;;119.97;112.18;;;;;;;;;;10191591;28;20050;-66
2022/11/18 05:29:01;;;;;;;121.20;113.18;;;;;;;;;;10192037;28;20073;-66
2022/11/18 05:33:57;;;;;;;115.32;107.53;;;;;;;;;;10190035;28;20073;-66
2022/11/18 05:38:56;;;;;;;118.50;110.75;;;;;;;;;;10183393;28;20046;-66
2022/11/18 05:43:53;;;;;;;118.03;110.13;;;;;;;;;;10188228;28;20137;-66
2022/11/18 05:48:49;;;;;;;115.93;108.22;;;;;;;;;;10196363;28;20137;-66
2022/11/18 05:53:46;;;;;;;116.38;108.38;;;;;;;;;;10214501;28;20080;-66
2022/11/18 05:58:43;;;;;;;114.45;106.43;;;;;;;;;;10199115;28;20503;-67
2022/11/18 06:03:39;;;;;;;118.05;110.28;;;;;;;;;;10198308;28;20070;-66
2022/11/18 06:08:38;;;;;;;113.50;105.82;;;;;;;;;;10197392;28;20042;-66
2022/11/18 06:13:36;;;;;;;116.03;108.22;;;;;;;;;;10199168;28;20544;-66
2022/11/18 06:18:33;;;;;;;116.65;108.47;;;;;;;;;;10196837;28;20048;-66
2022/11/18 06:23:30;;;;;;;110.45;102.63;;;;;;;;;;10195672;28;20099;-66
2022/11/18 06:28:27;;;;;;;112.13;104.40;;;;;;;;;;10195229;28;20070;-66
2022/11/18 06:33:23;;;;;;;108.05;100.50;;;;;;;;;;10197507;28;20060;-67
2022/11/18 06:38:22;;;;;;;112.22;104.47;;;;;;;;;;10196351;28;20042;-67
2022/11/18 06:48:33;;;;;;;113.22;105.38;;;;;;;;;;10195491;28;20506;-66
2022/11/18 06:53:30;;;;;;;111.15;103.15;;;;;;;;;;10196117;28;20104;-66
2022/11/18 06:58:26;;;;;;;110.15;102.15;;;;;;;;;;10195870;28;20069;-66
2022/11/18 07:03:22;;;;;;;109.50;101.82;;;;;;;;;;10196389;28;20076;-66
2022/11/18 07:08:18;;;;;;;109.05;101.30;;;;;;;;;;10195567;28;20050;-66
2022/11/18 07:13:15;;;;;;;121.75;113.32;;;;;;;;;;10194352;28;20226;-66
2022/11/18 07:18:12;;;;;;;122.25;113.78;;;;;;;;;;10195405;28;20041;-66
2022/11/18 07:23:08;;;;;;;115.45;107.55;;;;;;;;;;10190815;28;20084;-66
2022/11/18 07:28:04;;;;;;;114.22;106.03;;;;;;;;;;10188668;28;20666;-66
2022/11/18 07:33:01;;;;;;;114.72;106.97;;;;;;;;;;10196197;28;20128;-66
2022/11/18 07:37:57;;;;;;;114.10;106.15;;;;;;;;;;10192615;28;20053;-66
2022/11/18 07:42:53;;;;;;;107.75;100.35;;;;;;;;;;10190504;28;20050;-66
2022/11/18 07:47:49;;;;;;;111.25;103.45;;;;;;;;;;10195534;28;20045;-66
2022/11/18 07:52:46;;;;;;;100.72;94.03;;;;;;;;;;10192320;28;20120;-66
2022/11/18 07:57:42;;;;;;;100.13;93.28;;;;;;;;;;10189157;28;20078;-66
2022/11/18 08:02:38;;;;;;;94.72;88.22;;;;;;;;;;10193951;28;20076;-66
2022/11/18 08:07:36;;;;;;;90.82;84.82;;;;;;;;;;10193892;28;20038;-66
2022/11/18 08:12:32;;;;;;;84.28;78.63;;;;;;;;;;10192433;28;20467;-66
2022/11/18 08:17:28;;;;;;;80.85;75.15;;;;;;;;;;10194092;28;20050;-66
2022/11/18 08:22:25;;;;;;;78.43;73.13;;;;;;;;;;10193857;28;20848;-66
2022/11/18 08:27:21;;;;;;;77.97;72.30;;;;;;;;;;10189482;28;20138;-66
2022/11/18 08:32:17;;;;;;;71.93;66.50;;;;;;;;;;10188921;28;20077;-66
2022/11/18 08:37:14;;;;;;;72.47;67.07;;;;;;;;;;10192824;28;20048;-66
2022/11/18 08:42:10;;;;;;;69.57;64.60;;;;;;;;;;10193591;28;20128;-66
2022/11/18 08:47:06;;;;;;;67.22;62.15;;;;;;;;;;10190647;28;20048;-66
2022/11/18 08:52:02;;;;;;;65.80;61.10;;;;;;;;;;10192313;28;20142;-66
2022/11/18 08:56:59;;;;;;;62.40;57.63;;;;;;;;;;10191187;28;20424;-66
2022/11/18 09:01:55;;;;;;;60.65;56.15;;;;;;;;;;10192101;28;20428;-66
2022/11/18 09:06:52;;;;;;;57.88;53.47;;;;;;;;;;10192685;28;20056;-66
2022/11/18 09:11:48;;;;;;;62.13;57.30;;;;;;;;;;10191346;28;20073;-66
2022/11/18 09:16:44;;;;;;;54.83;50.65;;;;;;;;;;10189203;28;20054;-66
2022/11/18 09:21:41;;;;;;;49.80;45.65;;;;;;;;;;10191631;28;20416;-66
2022/11/18 09:26:37;;;;;;;42.25;38.72;;;;;;;;;;10191361;28;20049;-66
2022/11/18 09:31:33;;;;;;;41.95;38.60;;;;;;;;;;10192080;28;20077;-66
2022/11/18 09:36:30;;;;;;;41.20;37.83;;;;;;;;;;10190847;28;20104;-66
2022/11/18 09:41:26;;;;;;;39.72;36.50;;;;;;;;;;10189362;28;20042;-66
2022/11/18 09:46:30;;;;;;;38.55;35.15;;;;;;;;;;10190437;28;20042;-66
2022/11/18 09:51:27;;;;;;;36.13;33.08;;;;;;;;;;10190922;28;20070;-66
2022/11/18 09:56:25;;;;;;;36.03;33.05;;;;;;;;;;10190792;28;20068;-66
2022/11/18 10:01:21;;;;;;;31.88;29.20;;;;;;;;;;10191856;28;20053;-66
2022/11/18 10:06:25;;;;;;;31.58;28.65;;;;;;;;;;10191545;28;20080;-66
2022/11/18 10:11:23;;;;;;;32.20;29.23;;;;;;;;;;10189986;28;20053;-66
2022/11/18 10:16:38;;;;;;;30.58;28.08;;;;;;;;;;10191417;28;20038;-66
2022/11/18 10:21:53;;;;;;;29.67;27.13;;;;;;;;;;10188783;28;20068;-66
2022/11/18 10:26:56;;;;;;;26.77;24.38;;;;;;;;;;10187210;28;20062;-66
2022/11/18 10:31:52;;;;;;;29.42;26.75;;;;;;;;;;10191296;28;20050;-66
2022/11/18 10:37:04;;;;;;;24.58;22.52;;;;;;;;;;10197235;28;20069;-66
2022/11/18 10:42:05;;;;;;;22.67;20.88;;;;;;;;;;10187796;28;20141;-66
2022/11/18 10:47:16;;;;;;;22.63;20.52;;;;;;;;;;10197459;28;20046;-66
2022/11/18 10:52:13;;;;;;;19.45;17.77;;;;;;;;;;10197989;28;20073;-66
2022/11/18 10:57:12;;;;;;;17.92;16.05;;;;;;;;;;10196473;28;20046;-66
2022/11/18 11:02:16;;;;;;;16.83;15.32;;;;;;;;;;10197113;28;20521;-66
2022/11/18 11:07:23;;;;;;;18.50;16.70;;;;;;;;;;10195738;28;20056;-66
2022/11/18 11:12:20;;;;;;;15.68;14.10;;;;;;;;;;10196506;28;20038;-66
2022/11/18 11:17:36;;;;;;;15.57;13.98;;;;;;;;;;10196367;28;20049;-66
2022/11/18 11:22:33;;;;;;;13.40;12.13;;;;;;;;;;10184622;28;20049;-66
2022/11/18 11:27:32;;;;;;;14.75;13.30;;;;;;;;;;10194360;28;20041;-66
2022/11/18 11:33:00;;;;;;;15.35;13.75;;;;;;;;;;10194876;28;20042;-66
2022/11/18 11:38:03;;;;;;;15.65;14.05;;;;;;;;;;10195174;28;20073;-66
2022/11/18 11:43:17;;;;;;;14.68;13.27;;;;;;;;;;10190750;28;20492;-66
2022/11/18 11:48:22;;;;;;;16.23;14.52;;;;;;;;;;10192340;28;20044;-66
2022/11/18 11:53:30;;;;;;;14.82;13.35;;;;;;;;;;10195303;28;20142;-66
2022/11/18 11:58:38;;;;;;;14.98;13.55;;;;;;;;;;10194390;28;20041;-67
2022/11/18 12:03:52;;;;;;;15.45;13.60;;;;;;;;;;10195136;28;20510;-67
2022/11/18 12:09:03;;;;;;;17.35;14.70;;;;;;;;;;10192484;28;20048;-67
2022/11/18 12:14:06;;;;;;;15.80;14.15;;;;;;;;;;10186828;28;20041;-67
2022/11/18 12:19:07;;;;;;;15.43;13.80;;;;;;;;;;10193178;28;20089;-67
2022/11/18 12:24:29;;;;;;;15.18;13.57;;;;;;;;;;10193887;28;20050;-67
2022/11/18 12:29:31;;;;;;;14.98;13.00;;;;;;;;;;10193837;28;20052;-67
2022/11/18 12:34:37;;;;;;;15.68;13.93;;;;;;;;;;10192165;28;20400;-67
2022/11/18 12:39:36;;;;;;;14.65;13.15;;;;;;;;;;10190385;28;20046;-67
2022/11/18 12:44:32;;;;;;;14.77;12.73;;;;;;;;;;10186561;28;20042;-67
2022/11/18 12:49:29;;;;;;;15.15;12.68;;;;;;;;;;10191983;28;20415;-67
2022/11/18 12:54:25;;;;;;;15.88;13.20;;;;;;;;;;10192898;28;20686;-67
2022/11/18 12:59:25;;;;;;;14.68;13.18;;;;;;;;;;10190505;28;20081;-67
2022/11/18 13:04:21;;;;;;;14.20;12.73;;;;;;;;;;10191805;28;20121;-67
2022/11/18 13:09:20;;;;;;;14.27;12.02;;;;;;;;;;10192276;28;20543;-67
2022/11/18 13:19:37;;;;;;;13.02;11.70;;;;;;;;;;10189994;28;20053;-67
2022/11/18 13:24:41;;;;;;;12.38;11.10;;;;;;;;;;10190692;28;20133;-67
2022/11/18 13:29:43;;;;;;;16.70;14.95;;;;;;;;;;10185176;28;20085;-65
2022/11/18 13:34:47;;;;;;;12.95;11.75;;;;;;;;;;10191911;28;20562;-67
2022/11/18 13:39:44;;;;;;;12.82;11.52;;;;;;;;;;10189258;28;20038;-67
2022/11/18 13:44:45;;;;;;;12.77;11.57;;;;;;;;;;10191331;28;20050;-66
2022/11/18 13:49:45;;;;;;;11.73;10.57;;;;;;;;;;10190938;28;20054;-67
2022/11/18 13:54:46;;;;;;;11.43;10.43;;;;;;;;;;10190650;28;20049;-67
2022/11/18 13:59:43;;;;;;;11.38;10.38;;;;;;;;;;10191416;28;20459;-67
2022/11/18 14:04:46;;;;;;;11.60;10.60;;;;;;;;;;10186889;28;20042;-67
2022/11/18 14:09:53;;;;;;;11.30;10.40;;;;;;;;;;10196541;28;20137;-68
2022/11/18 14:14:49;;;;;;;12.00;10.90;;;;;;;;;;10197474;28;20073;-67
2022/11/18 14:19:52;;;;;;;12.02;11.02;;;;;;;;;;10194612;28;20152;-67
2022/11/18 14:24:59;;;;;;;10.73;9.93;;;;;;;;;;10198879;28;20140;-67
2022/11/18 14:29:55;;;;;;;11.70;10.80;;;;;;;;;;10198235;28;20089;-67
2022/11/18 14:34:58;;;;;;;11.65;10.50;;;;;;;;;;10197999;28;20133;-67
2022/11/18 14:39:55;;;;;;;12.38;11.07;;;;;;;;;;10197832;28;20056;-67
2022/11/18 14:44:52;;;;;;;12.15;11.25;;;;;;;;;;10197349;28;20160;-67
2022/11/18 14:49:48;;;;;;;12.63;11.65;;;;;;;;;;10191044;28;20503;-67
2022/11/18 14:54:44;;;;;;;13.32;12.32;;;;;;;;;;10197012;28;20546;-67
2022/11/18 14:59:41;;;;;;;13.95;12.75;;;;;;;;;;10196691;28;20535;-67
2022/11/18 15:04:37;;;;;;;14.63;13.30;;;;;;;;;;10197799;28;20042;-67
2022/11/18 15:09:33;;;;;;;15.07;13.85;;;;;;;;;;10195668;28;20053;-67
2022/11/18 15:14:30;;;;;;;14.55;13.45;;;;;;;;;;10196183;28;20053;-67
2022/11/18 15:19:26;;;;;;;15.05;13.85;;;;;;;;;;10194776;28;20424;-67
2022/11/18 15:24:22;;;;;;;19.20;17.80;;;;;;;;;;10196577;28;20056;-67
2022/11/18 15:29:23;;;;;;;19.00;17.55;;;;;;;;;;10196654;28;20133;-67
2022/11/18 15:34:19;;;;;;;19.42;17.92;;;;;;;;;;10194974;28;20042;-67
2022/11/18 15:39:17;;;;;;;20.58;18.80;;;;;;;;;;10194436;28;20054;-67
2022/11/18 15:44:13;;;;;;;20.52;18.48;;;;;;;;;;10194660;28;20512;-67
2022/11/18 15:49:11;;;;;;;21.95;20.25;;;;;;;;;;10194162;28;20133;-67
2022/11/18 15:54:08;;;;;;;22.42;20.63;;;;;;;;;;10194806;28;20056;-67
2022/11/18 15:59:05;;;;;;;22.98;21.27;;;;;;;;;;10195193;28;20060;-67
2022/11/18 16:04:02;;;;;;;24.02;22.10;;;;;;;;;;10194370;28;20044;-67
2022/11/18 16:08:58;;;;;;;25.75;23.50;;;;;;;;;;10193433;28;20519;-67
2022/11/18 16:14:03;;;;;;;25.73;23.80;;;;;;;;;;10193481;28;20098;-67
2022/11/18 16:19:00;;;;;;;26.83;24.65;;;;;;;;;;10192787;28;20495;-67
2022/11/18 16:23:57;;;;;;;26.35;24.40;;;;;;;;;;10191744;28;20053;-67
2022/11/18 16:28:53;;;;;;;27.13;25.02;;;;;;;;;;10192934;28;20125;-67
2022/11/18 16:33:49;;;;;;;27.63;25.63;;;;;;;;;;10194183;28;20141;-67
2022/11/18 16:38:46;;;;;;;28.50;26.33;;;;;;;;;;10192867;28;20073;-67
2022/11/18 16:43:42;;;;;;;27.77;25.88;;;;;;;;;;10193419;28;20674;-67
2022/11/18 16:48:38;;;;;;;28.30;26.17;;;;;;;;;;10192896;28;20050;-67
2022/11/18 16:53:34;;;;;;;28.50;26.25;;;;;;;;;;10192391;28;20524;-67
2022/11/18 16:58:30;;;;;;;28.33;26.23;;;;;;;;;;10192355;28;20042;-67
2022/11/18 17:03:27;;;;;;;27.95;26.10;;;;;;;;;;10192900;28;20126;-67
2022/11/18 17:08:23;;;;;;;26.45;24.63;;;;;;;;;;10192715;28;20050;-67
2022/11/18 17:13:19;;;;;;;27.65;25.90;;;;;;;;;;10191724;28;20060;-67
2022/11/18 17:18:15;;;;;;;26.75;24.95;;;;;;;;;;10192621;28;20427;-67
2022/11/18 17:23:12;;;;;;;26.83;25.13;;;;;;;;;;10188342;28;20049;-66
2022/11/18 17:28:08;;;;;;;27.30;25.38;;;;;;;;;;10191724;28;20142;-67
2022/11/18 17:33:04;;;;;;;26.65;24.95;;;;;;;;;;10191702;28;20081;-67
2022/11/18 17:38:00;;;;;;;26.52;24.90;;;;;;;;;;10191165;28;20068;-67
2022/11/18 17:42:57;;;;;;;25.00;23.27;;;;;;;;;;10189422;28;20072;-67
2022/11/18 17:47:54;;;;;;;24.77;23.17;;;;;;;;;;10190263;28;20137;-67
2022/11/18 17:52:50;;;;;;;25.52;23.83;;;;;;;;;;10191029;28;20132;-67
2022/11/18 17:57:47;;;;;;;25.17;23.23;;;;;;;;;;10189063;28;20072;-67
2022/11/18 18:02:43;;;;;;;23.33;21.60;;;;;;;;;;10191790;28;20046;-67
2022/11/18 18:07:39;;;;;;;23.00;21.40;;;;;;;;;;10189777;28;20056;-67
2022/11/18 18:17:52;;;;;;;22.85;21.15;;;;;;;;;;10189979;28;20050;-67
2022/11/18 18:22:48;;;;;;;22.48;20.88;;;;;;;;;;10189373;28;20042;-67
2022/11/18 18:27:44;;;;;;;25.25;23.05;;;;;;;;;;10190840;28;20042;-67
2022/11/18 18:32:40;;;;;;;23.38;21.60;;;;;;;;;;10190869;28;20132;-66
2022/11/18 18:37:37;;;;;;;24.20;22.38;;;;;;;;;;10188419;28;20046;-67
2022/11/18 18:42:33;;;;;;;25.35;23.58;;;;;;;;;;10188774;28;20046;-67
2022/11/18 18:47:29;;;;;;;24.10;22.55;;;;;;;;;;10189750;28;20057;-66
2022/11/18 18:52:25;;;;;;;25.02;23.20;;;;;;;;;;10189978;28;20491;-67
2022/11/18 18:57:22;;;;;;;25.75;23.83;;;;;;;;;;10196810;28;20124;-67
2022/11/18 19:02:18;;;;;;;25.48;23.67;;;;;;;;;;10196856;28;20125;-66
2022/11/18 19:07:15;;;;;;;25.33;23.52;;;;;;;;;;10196444;28;20049;-66
2022/11/18 19:17:26;;;;;;;25.83;24.02;;;;;;;;;;10191967;28;20050;-66
2022/11/18 19:22:23;;;;;;;24.17;22.63;;;;;;;;;;10193787;28;20041;-66
2022/11/18 19:27:19;;;;;;;24.75;23.05;;;;;;;;;;10196606;28;20069;-66
2022/11/18 19:32:16;;;;;;;24.77;23.02;;;;;;;;;;10196577;28;20136;-66
2022/11/18 19:37:12;;;;;;;26.55;24.52;;;;;;;;;;10193385;28;20050;-66
2022/11/18 19:42:09;;;;;;;25.15;23.40;;;;;;;;;;10195119;28;20064;-66
2022/11/18 19:47:06;;;;;;;24.30;22.60;;;;;;;;;;10194776;28;20128;-66
2022/11/18 19:52:02;;;;;;;25.25;23.65;;;;;;;;;;10194645;28;20133;-66
2022/11/18 19:56:59;;;;;;;25.73;23.92;;;;;;;;;;10195260;28;20057;-66
2022/11/18 20:01:56;;;;;;;20.92;19.42;;;;;;;;;;10194953;28;20050;-67
2022/11/18 20:06:52;;;;;;;20.75;19.25;;;;;;;;;;10194154;28;20061;-67
2022/11/18 20:11:48;;;;;;;20.33;18.80;;;;;;;;;;10194602;28;20133;-67
2022/11/18 20:16:45;;;;;;;20.42;18.83;;;;;;;;;;10194529;28;20464;-66
2022/11/18 20:21:46;;;;;;;19.75;18.20;;;;;;;;;;10194096;28;20052;-66
2022/11/18 20:26:43;;;;;;;20.77;19.10;;;;;;;;;;10193378;28;20067;-66
2022/11/18 20:31:39;;;;;;;19.85;18.35;;;;;;;;;;10194230;28;20042;-66
2022/11/18 20:36:36;;;;;;;18.98;17.58;;;;;;;;;;10185303;28;20054;-66
2022/11/18 20:41:32;;;;;;;20.00;18.25;;;;;;;;;;10192620;28;20038;-67
2022/11/18 20:46:29;;;;;;;20.77;19.17;;;;;;;;;;10192294;28;20053;-66
2022/11/18 20:51:26;;;;;;;21.88;20.08;;;;;;;;;;10193884;28;20046;-66
2022/11/18 20:56:24;;;;;;;22.38;20.23;;;;;;;;;;10191920;28;20046;-66
2022/11/18 21:01:21;;;;;;;21.42;19.63;;;;;;;;;;10193141;28;20049;-66
2022/11/18 21:06:18;;;;;;;20.33;18.58;;;;;;;;;;10192001;28;20389;-65
2022/11/18 21:11:14;;;;;;;22.35;20.45;;;;;;;;;;10193137;28;20527;-65
2022/11/18 21:16:11;;;;;;;22.27;20.38;;;;;;;;;;10191312;28;20056;-65
2022/11/18 21:26:23;;;;;;;29.17;26.98;;;;;;;;;;10189564;28;20045;-65
2022/11/18 21:31:20;;;;;;;28.15;25.70;;;;;;;;;;10190223;28;20065;-65
2022/11/18 21:36:19;;;;;;;29.88;27.35;;;;;;;;;;10187868;28;20042;-65
2022/11/18 21:41:15;;;;;;;28.77;26.65;;;;;;;;;;10183627;28;20038;-65
2022/11/18 21:46:12;;;;;;;29.33;27.17;;;;;;;;;;10190983;28;20134;-65
2022/11/18 21:51:10;;;;;;;29.77;27.55;;;;;;;;;;10190217;28;20053;-65
2022/11/18 21:56:10;;;;;;;29.73;27.73;;;;;;;;;;10184474;28;20551;-65
2022/11/18 22:01:07;;;;;;;30.85;28.33;;;;;;;;;;10191806;28;20049;-65
2022/11/18 22:06:04;;;;;;;30.40;28.10;;;;;;;;;;10184272;28;20046;-65
2022/11/18 22:11:01;;;;;;;30.73;28.42;;;;;;;;;;10189739;28;20062;-65
2022/11/18 22:15:58;;;;;;;33.25;30.25;;;;;;;;;;10190918;28;20453;-65
2022/11/18 22:20:59;;;;;;;32.17;29.95;;;;;;;;;;10190870;28;20084;-65
2022/11/18 22:25:56;;;;;;;33.47;30.98;;;;;;;;;;10189165;28;20164;-65
2022/11/18 22:30:52;;;;;;;34.50;31.80;;;;;;;;;;10195900;28;20046;-65
2022/11/18 22:35:48;;;;;;;31.05;28.65;;;;;;;;;;10198359;28;20057;-65
2022/11/18 22:40:44;;;;;;;29.00;26.55;;;;;;;;;;10198350;28;20686;-65
2022/11/18 22:45:41;;;;;;;27.00;24.70;;;;;;;;;;10196876;28;20056;-65
2022/11/18 22:50:41;;;;;;;26.83;24.63;;;;;;;;;;10196649;28;20050;-65
2022/11/18 22:55:37;;;;;;;27.40;24.98;;;;;;;;;;10197958;28;20392;-65
2022/11/18 23:00:34;;;;;;;25.98;23.98;;;;;;;;;;10193348;28;20056;-65
2022/11/18 23:05:30;;;;;;;28.75;26.50;;;;;;;;;;10196846;28;20049;-65
2022/11/18 23:10:26;;;;;;;27.33;25.33;;;;;;;;;;10196156;28;20717;-65
2022/11/18 23:15:22;;;;;;;28.58;26.27;;;;;;;;;;10196345;28;20049;-65
2022/11/18 23:20:19;;;;;;;28.55;26.00;;;;;;;;;;10197070;28;20125;-65
2022/11/18 23:25:15;;;;;;;29.23;26.75;;;;;;;;;;10195774;28;20042;-65
2022/11/18 23:30:11;;;;;;;28.88;26.48;;;;;;;;;;10196380;28;20459;-65
2022/11/18 23:35:07;;;;;;;29.27;26.70;;;;;;;;;;10195201;28;20730;-66
2022/11/18 23:40:04;;;;;;;28.60;26.27;;;;;;;;;;10195499;28;20057;-66
2022/11/18 23:45:00;;;;;;;28.90;26.55;;;;;;;;;;10189152;28;20045;-65
2022/11/18 23:50:00;;;;;;;29.50;27.23;;;;;;;;;;10194907;28;20672;-65
2022/11/18 23:54:58;;;;;;;28.52;26.23;;;;;;;;;;10195644;28;20045;-65
2022/11/18 23:59:54;;;;;;;30.33;27.70;;;;;;;;;;10194292;28;20052;-65
